Time;durP1;ratioP1;P1;durP2;ratioP2;P2;SDS_P1;SDS_P2;PMS_P1;PMS_P2;Temp;Humidity;BMP_temperature;BMP_pressure;BME280_temperature;BME280_humidity;BME280_pressure;Samples;Min_cycle;Max_cycle;Signal;HPM_P1;HPM_P2
2021/12/04 00:01:30;;;;;;;16.70;6.60;;;;;;;-1.20;95.25;98597.98;99660;1339;68879;-65
2021/12/04 00:04:32;;;;;;;13.10;6.30;;;;;;;-1.21;95.28;98596.66;99632;1342;73194;-65
2021/12/04 00:07:22;;;;;;;13.30;6.50;;;;;;;-1.19;95.08;98595.23;99904;1336;59789;-66
2021/12/04 00:10:18;;;;;;;13.50;5.90;;;;;;;-1.20;94.92;98595.08;99882;1342;59850;-66
2021/12/04 00:13:08;;;;;;;14.60;6.40;;;;;;;-1.19;95.00;98588.27;99908;1340;72346;-66
2021/12/04 00:15:58;;;;;;;15.40;7.40;;;;;;;-1.22;95.04;98587.17;99937;1343;68158;-65
2021/12/04 00:18:48;;;;;;;15.90;6.40;;;;;;;-1.20;94.95;98596.46;99806;1336;73357;-66
2021/12/04 00:21:39;;;;;;;16.20;7.60;;;;;;;-1.23;94.92;98591.57;99741;1343;59744;-66
2021/12/04 00:24:28;;;;;;;16.90;6.60;;;;;;;-1.23;94.88;98592.98;99730;1337;60609;-66
2021/12/04 00:27:18;;;;;;;14.40;7.20;;;;;;;-1.26;94.88;98586.70;99768;1343;71979;-66
2021/12/04 00:30:09;;;;;;;16.70;7.40;;;;;;;-1.29;94.68;98584.23;99804;1342;67045;-66
2021/12/04 00:33:02;;;;;;;16.40;7.10;;;;;;;-1.30;94.59;98588.98;99687;1339;73519;-66
2021/12/04 00:35:57;;;;;;;16.80;6.60;;;;;;;-1.31;94.63;98586.25;99757;1343;59768;-65
2021/12/04 00:49:07;;;;;;;17.20;7.10;;;;;;;-1.32;94.83;98573.08;99666;1339;72417;-66
2021/12/04 00:51:40;;;;;;;16.40;8.10;;;;;;;-1.33;95.22;98576.30;99940;1340;59805;-65
2021/12/04 00:54:31;;;;;;;12.00;5.70;;;;;;;-1.34;95.36;98573.19;99889;1340;61332;-65
2021/12/04 00:57:23;;;;;;;16.30;7.20;;;;;;;-1.36;95.30;98571.58;100011;1337;73225;-66
2021/12/04 01:00:13;;;;;;;16.00;7.30;;;;;;;-1.38;95.37;98563.50;99843;1343;67531;-66
2021/12/04 01:03:04;;;;;;;15.70;7.30;;;;;;;-1.42;95.65;98563.30;99628;1343;73380;-67
2021/12/04 01:05:53;;;;;;;15.30;7.30;;;;;;;-1.44;95.61;98561.02;99656;1343;59738;-66
2021/12/04 01:08:43;;;;;;;17.90;7.70;;;;;;;-1.45;95.48;98553.27;99734;1343;59738;-66
2021/12/04 01:11:37;;;;;;;17.50;7.80;;;;;;;-1.46;95.65;98556.58;98955;1339;1003829;-67
2021/12/04 01:14:33;;;;;;;15.30;6.60;;;;;;;-1.46;95.73;98551.73;99894;1336;67249;-66
2021/12/04 01:17:23;;;;;;;16.90;6.80;;;;;;;-1.46;95.39;98544.79;99755;1340;72314;-66
2021/12/04 01:20:20;;;;;;;19.60;7.30;;;;;;;-1.48;95.14;98544.31;99708;1337;59844;-66
2021/12/04 01:23:10;;;;;;;17.20;8.00;;;;;;;-1.47;95.24;98542.92;99750;1342;60310;-66
2021/12/04 01:26:01;;;;;;;11.10;5.10;;;;;;;-1.45;95.13;98546.11;99637;1337;73622;-68
2021/12/04 01:28:53;;;;;;;15.70;6.30;;;;;;;-1.46;94.91;98541.96;99877;1343;68609;-66
2021/12/04 01:31:43;;;;;;;15.70;6.90;;;;;;;-1.48;94.58;98541.92;99616;1336;73462;-65
2021/12/04 01:34:34;;;;;;;19.10;8.30;;;;;;;-1.51;94.86;98540.34;99738;1342;60196;-66
2021/12/04 01:37:24;;;;;;;19.10;8.50;;;;;;;-1.53;95.14;98534.86;99624;1343;61036;-66
2021/12/04 01:40:13;;;;;;;16.70;8.10;;;;;;;-1.53;95.12;98534.67;99727;1336;73514;-66
2021/12/04 01:43:03;;;;;;;17.60;8.20;;;;;;;-1.54;94.98;98534.55;99885;1337;68803;-66
2021/12/04 01:45:56;;;;;;;18.50;8.00;;;;;;;-1.54;95.10;98528.63;99730;1342;73193;-66
2021/12/04 01:48:46;;;;;;;17.10;7.40;;;;;;;-1.52;94.93;98528.22;99657;1339;59686;-65
2021/12/04 01:51:37;;;;;;;13.00;5.40;;;;;;;-1.49;94.67;98519.89;99664;1337;61012;-65
2021/12/04 01:54:27;;;;;;;15.10;6.80;;;;;;;-1.49;94.45;98517.44;99761;1336;72744;-65
2021/12/04 01:57:19;;;;;;;16.00;7.90;;;;;;;-1.49;94.47;98512.55;99701;1343;67214;-65
2021/12/04 02:00:10;;;;;;;15.80;8.10;;;;;;;-1.49;94.28;98507.36;99678;1336;72116;-64
2021/12/04 02:03:03;;;;;;;15.10;7.10;;;;;;;-1.45;94.13;98509.20;99754;1342;59708;-64
2021/12/04 02:05:53;;;;;;;15.60;7.60;;;;;;;-1.46;93.81;98505.24;99698;1336;60160;-65
2021/12/04 02:08:44;;;;;;;15.60;7.70;;;;;;;-1.47;93.77;98501.33;99781;1342;72436;-64
2021/12/04 02:11:34;;;;;;;17.30;8.40;;;;;;;-1.48;93.89;98494.40;99760;1340;68273;-65
2021/12/04 02:14:26;;;;;;;16.60;7.90;;;;;;;-1.47;93.98;98499.56;99661;1337;72930;-65
2021/12/04 02:17:15;;;;;;;13.50;7.10;;;;;;;-1.44;93.99;98494.69;99996;1342;59892;-65
2021/12/04 02:20:11;;;;;;;15.90;7.40;;;;;;;-1.44;93.70;98495.08;99661;1337;60695;-65
2021/12/04 02:23:04;;;;;;;16.00;7.70;;;;;;;-1.45;93.61;98492.50;99868;1336;73702;-64
2021/12/04 02:25:54;;;;;;;13.30;6.90;;;;;;;-1.47;93.63;98489.83;99691;1340;66795;-65
2021/12/04 02:28:45;;;;;;;20.30;8.30;;;;;;;-1.48;93.85;98483.98;99680;1337;73110;-65
2021/12/04 02:31:39;;;;;;;13.50;6.80;;;;;;;-1.45;93.84;98480.86;99765;1337;59930;-65
2021/12/04 02:34:31;;;;;;;15.60;7.40;;;;;;;-1.44;93.70;98476.64;99668;1340;60376;-65
2021/12/04 02:37:21;;;;;;;16.70;7.40;;;;;;;-1.43;93.78;98479.16;99675;1336;72229;-65
2021/12/04 02:40:15;;;;;;;13.90;6.70;;;;;;;-1.44;93.79;98478.54;99885;1337;67203;-65
2021/12/04 02:43:04;;;;;;;20.70;9.00;;;;;;;-1.42;93.87;98480.89;99663;1340;71933;-66
2021/12/04 02:45:54;;;;;;;13.20;6.40;;;;;;;-1.40;93.84;98479.75;99933;1341;59867;-65
2021/12/04 02:48:46;;;;;;;16.00;7.60;;;;;;;-1.38;93.77;98477.71;99839;1337;60706;-65
2021/12/04 02:51:36;;;;;;;16.30;7.90;;;;;;;-1.38;93.58;98471.22;99833;1343;73734;-65
2021/12/04 02:54:25;;;;;;;14.30;7.60;;;;;;;-1.38;93.69;98466.36;99723;1339;68312;-65
2021/12/04 02:57:18;;;;;;;17.20;8.20;;;;;;;-1.37;93.46;98462.14;100192;1336;73276;-64
2021/12/04 03:00:15;;;;;;;16.20;8.00;;;;;;;-1.34;93.47;98461.50;100172;1342;59862;-64
2021/12/04 03:03:04;;;;;;;16.70;7.60;;;;;;;-1.35;93.11;98449.20;100185;1341;59872;-65
2021/12/04 03:05:58;;;;;;;17.30;8.10;;;;;;;-1.35;92.93;98449.00;100002;1342;73642;-66
2021/12/04 03:08:48;;;;;;;15.50;7.10;;;;;;;-1.33;93.40;98440.73;99346;1336;1003076;-65
2021/12/04 03:11:38;;;;;;;17.90;7.80;;;;;;;-1.32;93.14;98435.82;99289;1342;1004162;-65
2021/12/04 03:14:28;;;;;;;15.50;7.70;;;;;;;-1.32;93.17;98434.23;100218;1341;59820;-65
2021/12/04 03:17:20;;;;;;;17.70;7.60;;;;;;;-1.31;93.13;98435.89;100035;1342;59850;-65
2021/12/04 03:20:11;;;;;;;13.90;7.10;;;;;;;-1.30;93.09;98438.45;99868;1344;72733;-65
2021/12/04 03:23:03;;;;;;;13.80;6.80;;;;;;;-1.30;93.51;98432.52;100248;1342;66707;-65
2021/12/04 03:25:56;;;;;;;16.00;7.70;;;;;;;-1.29;93.53;98431.63;99503;1336;1003739;-65
2021/12/04 03:28:47;;;;;;;15.40;7.00;;;;;;;-1.30;93.54;98425.77;100151;1341;59770;-65
2021/12/04 03:41:08;;;;;;;15.20;7.40;;;;;;;-1.27;92.81;98426.48;100229;1341;71314;-64
2021/12/04 03:44:05;;;;;;;15.10;7.10;;;;;;;-1.27;92.84;98423.33;99977;1338;59709;-64
2021/12/04 03:46:54;;;;;;;13.90;7.10;;;;;;;-1.25;92.86;98422.20;99744;1339;59766;-64
2021/12/04 03:49:43;;;;;;;17.10;8.00;;;;;;;-1.26;92.74;98419.44;99763;1343;71147;-64
2021/12/04 03:52:32;;;;;;;14.70;6.90;;;;;;;-1.30;92.35;98416.39;99716;1343;68295;-64
2021/12/04 03:55:21;;;;;;;18.20;8.50;;;;;;;-1.33;92.64;98413.06;99766;1337;73163;-64
2021/12/04 03:58:10;;;;;;;13.20;6.90;;;;;;;-1.33;92.79;98409.41;100055;1336;59866;-64
2021/12/04 04:01:03;;;;;;;13.30;6.30;;;;;;;-1.33;92.70;98412.21;99868;1342;59917;-65
2021/12/04 04:03:57;;;;;;;19.40;8.00;;;;;;;-1.35;92.69;98411.43;99757;1340;73749;-65
2021/12/04 04:06:50;;;;;;;17.00;7.80;;;;;;;-1.37;92.81;98410.14;99672;1343;67192;-64
2021/12/04 04:09:43;;;;;;;13.90;6.30;;;;;;;-1.37;93.09;98405.98;99776;1343;73164;-65
2021/12/04 04:12:43;;;;;;;15.40;7.00;;;;;;;-1.38;93.19;98406.85;99715;1343;59808;-64
2021/12/04 04:15:34;;;;;;;17.60;9.00;;;;;;;-1.38;93.16;98402.55;99806;1343;59622;-65
2021/12/04 04:18:24;;;;;;;17.70;8.80;;;;;;;-1.36;93.21;98401.56;99797;1342;72369;-65
2021/12/04 04:21:16;;;;;;;16.80;8.60;;;;;;;-1.32;93.20;98398.40;99687;1340;67189;-65
2021/12/04 04:24:15;;;;;;;19.30;8.80;;;;;;;-1.29;92.95;98400.46;99722;1336;70833;-65
2021/12/04 04:27:06;;;;;;;16.30;7.70;;;;;;;-1.26;92.97;98395.11;99877;1343;59866;-65
2021/12/04 04:29:56;;;;;;;17.90;8.20;;;;;;;-1.24;93.05;98395.83;99706;1339;60862;-65
2021/12/04 04:32:48;;;;;;;16.50;8.40;;;;;;;-1.25;92.83;98387.39;100117;1336;72608;-66
2021/12/04 04:35:38;;;;;;;14.70;8.40;;;;;;;-1.28;92.93;98387.34;100802;1343;67772;-66
2021/12/04 04:38:45;;;;;;;19.60;9.60;;;;;;;-1.29;92.78;98381.67;99964;1339;71661;-67
2021/12/04 05:00:45;;;;;;;13.00;7.50;;;;;;;-1.37;93.48;98380.53;100031;1343;59817;-66
2021/12/04 05:13:20;;;;;;;16.20;7.80;;;;;;;-1.35;93.57;98378.89;100238;1340;59760;-72
2021/12/04 05:16:17;;;;;;;16.80;8.80;;;;;;;-1.34;93.71;98374.82;100512;1343;59727;-68
2021/12/04 05:19:52;;;;;;;16.60;8.20;;;;;;;-1.31;93.62;98380.73;100405;1342;73433;-71
2021/12/04 05:23:10;;;;;;;12.80;6.00;;;;;;;-1.27;93.83;98375.52;100710;1339;68423;-69
2021/12/04 05:26:18;;;;;;;17.40;8.30;;;;;;;-1.24;93.80;98378.79;100402;1340;71492;-71
2021/12/04 05:29:25;;;;;;;16.80;9.00;;;;;;;-1.23;93.83;98383.09;100237;1337;59745;-69
2021/12/04 05:32:29;;;;;;;15.10;7.60;;;;;;;-1.24;93.90;98380.17;98136;1342;3172356;-70
2021/12/04 05:35:30;;;;;;;17.50;8.50;;;;;;;-1.23;93.87;98384.63;100436;1343;71907;-71
2021/12/04 05:38:39;;;;;;;17.30;9.30;;;;;;;-1.23;94.34;98384.66;99405;1336;1003116;-70
2021/12/04 05:41:41;;;;;;;19.20;9.10;;;;;;;-1.22;94.26;98382.52;100335;1342;70560;-70
2021/12/04 05:44:53;;;;;;;15.90;8.30;;;;;;;-1.22;94.12;98385.81;100197;1343;59724;-69
2021/12/04 05:47:54;;;;;;;17.70;8.90;;;;;;;-1.21;94.19;98384.33;100181;1343;59801;-69
2021/12/04 05:51:13;;;;;;;16.70;7.30;;;;;;;-1.17;94.23;98380.30;100327;1337;71075;-70
2021/12/04 05:57:11;;;;;;;17.30;7.80;;;;;;;-1.15;94.02;98375.65;100416;1339;71892;-68
2021/12/04 06:00:01;;;;;;;16.00;7.70;;;;;;;-1.16;94.03;98374.70;100247;1340;59660;-66
2021/12/04 06:02:54;;;;;;;17.10;8.00;;;;;;;-1.18;94.32;98374.43;100135;1336;59758;-70
2021/12/04 06:05:47;;;;;;;15.90;9.10;;;;;;;-1.20;94.29;98374.05;100434;1340;72350;-68
2021/12/04 06:08:46;;;;;;;18.40;9.20;;;;;;;-1.20;94.39;98367.61;100337;1341;66969;-69
2021/12/04 06:12:07;;;;;;;16.20;8.20;;;;;;;-1.19;94.51;98369.64;100119;1336;72341;-68
2021/12/04 06:15:04;;;;;;;15.60;8.10;;;;;;;-1.16;94.67;98375.56;100255;1342;59752;-68
2021/12/04 06:18:20;;;;;;;12.80;7.00;;;;;;;-1.16;94.80;98374.19;100117;1340;60454;-68
2021/12/04 06:24:35;;;;;;;16.10;8.70;;;;;;;-1.15;94.94;98380.39;100467;1342;67122;-67
2021/12/04 06:27:35;;;;;;;18.20;9.00;;;;;;;-1.18;94.80;98388.21;100358;1340;73195;-68
2021/12/04 06:31:20;;;;;;;16.50;8.40;;;;;;;-1.17;94.99;98379.97;101283;1336;59656;-69
2021/12/04 06:34:28;;;;;;;17.50;8.50;;;;;;;-1.16;95.05;98380.25;100328;1340;60979;-67
2021/12/04 06:37:29;;;;;;;19.60;9.60;;;;;;;-1.14;95.07;98376.32;100311;1336;73681;-69
2021/12/04 06:40:26;;;;;;;16.70;9.00;;;;;;;-1.12;95.22;98371.70;100258;1336;67316;-68
2021/12/04 06:43:25;;;;;;;18.00;9.20;;;;;;;-1.11;95.25;98370.93;99967;1337;71574;-69
2021/12/04 06:46:19;;;;;;;18.70;9.40;;;;;;;-1.09;95.15;98371.52;100290;1341;59738;-68
2021/12/04 06:49:18;;;;;;;15.90;8.20;;;;;;;-1.09;95.18;98373.57;100159;1340;59823;-69
2021/12/04 06:52:13;;;;;;;15.40;8.10;;;;;;;-1.10;95.50;98377.11;100538;1340;72479;-68
2021/12/04 06:55:06;;;;;;;17.10;9.40;;;;;;;-1.09;95.61;98382.27;100068;1340;68265;-67
2021/12/04 06:57:59;;;;;;;15.80;9.10;;;;;;;-1.07;95.45;98382.18;100472;1343;73065;-67
2021/12/04 07:00:55;;;;;;;16.70;8.80;;;;;;;-1.07;95.61;98388.96;99858;1342;59819;-68
2021/12/04 07:03:44;;;;;;;16.50;9.00;;;;;;;-1.07;95.72;98390.34;100152;1337;61034;-68
2021/12/04 07:06:34;;;;;;;15.10;7.60;;;;;;;-1.07;96.02;98387.88;99855;1343;72545;-67
2021/12/04 07:09:23;;;;;;;15.60;8.60;;;;;;;-1.06;96.51;98384.20;99730;1336;68676;-67
2021/12/04 07:12:12;;;;;;;16.00;7.80;;;;;;;-1.08;96.83;98383.09;99685;1343;73153;-67
2021/12/04 07:15:01;;;;;;;16.90;9.10;;;;;;;-1.11;97.29;98379.09;99773;1344;59756;-68
2021/12/04 07:17:50;;;;;;;16.20;8.50;;;;;;;-1.08;97.59;98386.57;99872;1340;59647;-67
2021/12/04 07:20:44;;;;;;;14.80;8.70;;;;;;;-1.03;97.80;98390.86;100034;1340;73261;-68
2021/12/04 07:23:33;;;;;;;16.90;8.10;;;;;;;-0.97;97.81;98392.08;100035;1343;68396;-67
2021/12/04 07:26:24;;;;;;;18.10;9.10;;;;;;;-0.95;97.91;98388.98;100073;1343;72229;-67
2021/12/04 07:29:20;;;;;;;16.10;8.90;;;;;;;-0.92;98.01;98388.46;99873;1339;59798;-68
2021/12/04 07:32:25;;;;;;;15.30;8.50;;;;;;;-0.92;98.07;98383.42;99534;1339;61284;-68
2021/12/04 07:35:15;;;;;;;13.10;8.10;;;;;;;-0.88;98.21;98379.52;99098;1337;1003075;-67
2021/12/04 07:38:05;;;;;;;16.40;9.00;;;;;;;-0.82;97.96;98384.95;100102;1342;68496;-68
2021/12/04 07:40:54;;;;;;;16.30;9.10;;;;;;;-0.78;97.74;98388.70;99704;1340;70830;-67
2021/12/04 07:43:42;;;;;;;18.00;9.10;;;;;;;-0.77;97.66;98388.14;99699;1338;59719;-67
2021/12/04 07:46:31;;;;;;;18.00;8.60;;;;;;;-0.74;97.85;98389.34;99845;1337;59879;-67
2021/12/04 07:49:20;;;;;;;17.00;9.90;;;;;;;-0.67;97.78;98383.21;99632;1336;73556;-69
2021/12/04 07:52:11;;;;;;;13.40;7.50;;;;;;;-0.59;97.43;98379.64;99811;1343;68694;-67
2021/12/04 07:55:00;;;;;;;17.40;9.10;;;;;;;-0.57;97.26;98378.23;99937;1340;71895;-67
2021/12/04 07:57:50;;;;;;;23.70;10.80;;;;;;;-0.55;97.28;98375.02;99942;1336;59727;-69
2021/12/04 08:00:46;;;;;;;17.80;8.90;;;;;;;-0.52;97.60;98377.42;99802;1339;60541;-67
2021/12/04 08:03:43;;;;;;;17.00;8.50;;;;;;;-0.47;97.60;98378.76;99811;1344;73482;-68
2021/12/04 08:06:38;;;;;;;17.60;8.00;;;;;;;-0.44;97.57;98384.33;99846;1342;68389;-68
2021/12/04 08:09:28;;;;;;;22.40;9.00;;;;;;;-0.45;97.45;98384.67;99710;1343;73205;-69
2021/12/04 08:12:24;;;;;;;19.30;8.40;;;;;;;-0.45;97.53;98379.64;100104;1343;59647;-67
2021/12/04 08:15:22;;;;;;;21.60;10.30;;;;;;;-0.43;97.60;98384.45;99977;1344;60703;-67
2021/12/04 08:21:25;;;;;;;15.70;8.80;;;;;;;-0.35;97.13;98389.70;100005;1343;67222;-68
2021/12/04 08:24:17;;;;;;;17.40;9.60;;;;;;;-0.33;97.05;98394.82;99756;1340;72059;-68
2021/12/04 08:27:10;;;;;;;13.90;7.50;;;;;;;-0.27;97.16;98398.27;99679;1344;59837;-67
2021/12/04 08:30:13;;;;;;;18.90;9.80;;;;;;;-0.19;97.01;98400.08;99766;1340;59722;-66
2021/12/04 08:33:14;;;;;;;16.00;8.80;;;;;;;-0.11;96.87;98401.49;100073;1337;73350;-68
2021/12/04 08:36:05;;;;;;;16.90;10.30;;;;;;;-0.09;96.70;98402.96;99753;1336;68576;-69
2021/12/04 08:38:56;;;;;;;17.10;9.70;;;;;;;-0.11;96.46;98402.00;99848;1339;72074;-67
2021/12/04 08:41:46;;;;;;;18.90;10.40;;;;;;;-0.13;96.46;98407.40;99788;1342;59775;-68
2021/12/04 08:44:37;;;;;;;20.80;10.20;;;;;;;-0.13;96.49;98407.38;99705;1343;61203;-68
2021/12/04 08:47:27;;;;;;;16.50;8.40;;;;;;;-0.07;96.66;98408.77;99645;1343;73686;-68
2021/12/04 08:50:23;;;;;;;18.70;10.10;;;;;;;0.02;96.45;98405.60;99356;1345;1003111;-68
2021/12/04 08:53:12;;;;;;;15.20;7.80;;;;;;;0.05;96.20;98400.58;99827;1339;72746;-67
2021/12/04 08:56:02;;;;;;;18.70;10.20;;;;;;;0.02;96.08;98401.96;99667;1339;59966;-68
2021/12/04 08:58:51;;;;;;;17.20;9.80;;;;;;;-0.00;96.26;98402.42;100095;1342;59926;-68
2021/12/04 09:01:43;;;;;;;17.90;9.80;;;;;;;0.06;96.24;98412.15;100243;1336;73494;-69
2021/12/04 09:04:35;;;;;;;19.90;9.70;;;;;;;0.25;96.02;98421.48;100306;1340;66466;-68
2021/12/04 09:07:27;;;;;;;16.50;8.80;;;;;;;0.41;95.19;98420.13;99805;1339;73290;-68
2021/12/04 09:10:25;;;;;;;18.70;10.80;;;;;;;0.44;94.80;98419.13;100224;1343;59776;-67
2021/12/04 09:13:16;;;;;;;20.80;11.40;;;;;;;0.46;94.73;98422.48;99888;1343;60877;-68
2021/12/04 09:16:06;;;;;;;18.20;9.80;;;;;;;0.49;94.76;98425.27;99705;1340;74123;-68
2021/12/04 09:18:55;;;;;;;14.60;8.50;;;;;;;0.54;94.52;98428.63;99764;1337;68246;-68
2021/12/04 09:22:02;;;;;;;19.10;10.30;;;;;;;0.66;94.45;98424.01;100085;1341;73218;-68
2021/12/04 09:25:18;;;;;;;21.80;10.30;;;;;;;0.73;93.90;98428.45;100070;1334;59743;-69
2021/12/04 09:28:17;;;;;;;19.10;10.20;;;;;;;0.66;93.80;98426.73;99959;1340;60982;-69
2021/12/04 09:31:23;;;;;;;15.00;7.60;;;;;;;0.60;94.21;98428.02;100319;1337;73702;-68
2021/12/04 10:03:11;;;;;;;18.50;8.50;;;;;;;0.58;95.31;98422.21;99761;1336;73588;-68
2021/12/04 10:34:00;;;;;;;18.90;9.70;;;;;;;0.60;96.47;98410.24;100054;1340;73490;-69
2021/12/04 10:36:53;;;;;;;20.30;10.90;;;;;;;0.65;96.25;98409.05;99887;1340;68537;-68
2021/12/04 10:39:42;;;;;;;20.40;10.30;;;;;;;0.75;96.35;98405.48;99886;1340;70701;-69
2021/12/04 10:42:59;;;;;;;17.00;8.40;;;;;;;0.79;95.63;98408.15;100209;1342;59857;-69
2021/12/04 10:46:16;;;;;;;20.00;10.00;;;;;;;0.81;95.74;98411.69;100085;1337;61204;-69
2021/12/04 10:49:17;;;;;;;18.20;9.10;;;;;;;0.79;95.54;98412.34;100016;1336;72265;-69
2021/12/04 10:55:46;;;;;;;19.50;9.80;;;;;;;0.78;95.84;98419.59;100071;1339;71793;-68
2021/12/04 11:04:55;;;;;;;16.50;8.30;;;;;;;0.91;95.35;98429.41;99870;1339;72226;-70
2021/12/04 11:37:07;;;;;;;18.70;9.20;;;;;;;1.00;95.18;98426.54;99643;1337;1003091;-68
2021/12/04 11:43:22;;;;;;;17.00;9.00;;;;;;;1.09;94.83;98429.52;100129;1339;72925;-68
2021/12/04 11:46:21;;;;;;;17.50;8.90;;;;;;;1.13;94.59;98428.69;100055;1340;59819;-69
2021/12/04 11:49:24;;;;;;;14.20;7.30;;;;;;;1.16;94.19;98429.37;100136;1340;59736;-68
2021/12/04 11:52:19;;;;;;;15.90;8.40;;;;;;;1.12;93.70;98421.40;100152;1337;73691;-68
2021/12/04 11:55:10;;;;;;;17.50;9.80;;;;;;;1.06;93.86;98416.23;100337;1340;67078;-68
2021/12/04 11:57:59;;;;;;;18.20;8.70;;;;;;;1.02;94.11;98418.37;99977;1339;71780;-68
2021/12/04 12:00:54;;;;;;;16.60;9.20;;;;;;;0.97;94.25;98421.87;99938;1338;59844;-69
2021/12/04 12:03:56;;;;;;;15.40;8.40;;;;;;;0.95;94.32;98428.96;100132;1339;60001;-68
2021/12/04 12:06:46;;;;;;;13.70;7.20;;;;;;;0.98;94.76;98431.42;100053;1339;71936;-67
2021/12/04 12:09:39;;;;;;;13.70;8.10;;;;;;;1.00;94.53;98429.15;99747;1342;66828;-68
2021/12/04 12:12:37;;;;;;;14.40;7.80;;;;;;;1.04;94.32;98429.27;99998;1340;71807;-68
2021/12/04 12:16:00;;;;;;;15.00;7.50;;;;;;;1.06;94.16;98432.49;100321;1343;59841;-68
2021/12/04 12:19:10;;;;;;;13.80;7.60;;;;;;;1.07;94.26;98438.17;100208;1336;59666;-68
2021/12/04 12:22:22;;;;;;;14.40;7.20;;;;;;;1.13;94.23;98441.29;99885;1340;73477;-68
2021/12/04 12:25:29;;;;;;;16.60;8.00;;;;;;;1.12;93.82;98442.02;100248;1342;68210;-68
2021/12/04 12:37:59;;;;;;;16.40;7.10;;;;;;;1.09;93.71;98438.77;100345;1336;72432;-68
2021/12/04 12:41:09;;;;;;;15.10;7.00;;;;;;;1.06;93.67;98440.67;100211;1343;67276;-69
2021/12/04 12:44:13;;;;;;;12.50;5.80;;;;;;;1.05;93.80;98438.63;100161;1337;73101;-69
2021/12/04 12:47:16;;;;;;;14.50;7.20;;;;;;;1.04;94.04;98433.85;99874;1343;59618;-68
2021/12/04 12:50:05;;;;;;;13.40;6.40;;;;;;;1.03;93.94;98428.65;100085;1342;60649;-68
2021/12/04 12:53:09;;;;;;;13.20;6.70;;;;;;;1.00;93.93;98433.21;100270;1337;72685;-68
2021/12/04 12:56:12;;;;;;;14.70;8.00;;;;;;;0.96;94.19;98431.20;100023;1339;67869;-68
2021/12/04 12:59:22;;;;;;;14.00;7.30;;;;;;;0.90;94.27;98435.04;100540;1340;72833;-69
2021/12/04 13:12:04;;;;;;;13.50;7.60;;;;;;;0.83;95.14;98428.84;100090;1340;68434;-69
2021/12/04 13:14:54;;;;;;;13.50;7.10;;;;;;;0.81;95.05;98437.73;100019;1339;70754;-68
2021/12/04 13:17:43;;;;;;;13.60;6.80;;;;;;;0.76;95.18;98443.64;99818;1343;59751;-67
2021/12/04 13:20:32;;;;;;;15.20;7.40;;;;;;;0.70;95.16;98439.11;100008;1343;60672;-68
2021/12/04 13:23:23;;;;;;;13.50;7.30;;;;;;;0.66;95.60;98437.07;99793;1339;73270;-68
2021/12/04 13:26:13;;;;;;;14.80;6.80;;;;;;;0.62;95.76;98439.08;100064;1340;68977;-67
2021/12/04 13:29:05;;;;;;;13.10;6.30;;;;;;;0.61;95.85;98439.48;100254;1340;73442;-68
2021/12/04 13:31:57;;;;;;;13.90;7.10;;;;;;;0.62;95.82;98440.17;99900;1340;542253;-67
2021/12/04 13:34:46;;;;;;;14.60;7.20;;;;;;;0.64;95.88;98444.39;99868;1340;60802;-67
2021/12/04 13:37:36;;;;;;;11.50;5.00;;;;;;;0.63;95.85;98445.83;99682;1337;73407;-67
2021/12/04 13:40:27;;;;;;;14.80;7.20;;;;;;;0.62;95.83;98442.06;99790;1339;68436;-67
2021/12/04 13:43:18;;;;;;;13.00;6.40;;;;;;;0.61;95.89;98436.52;99711;1339;71820;-67
2021/12/04 13:46:07;;;;;;;14.30;6.60;;;;;;;0.61;95.98;98444.89;99636;1343;59781;-67
2021/12/04 13:49:04;;;;;;;16.90;7.70;;;;;;;0.60;95.94;98441.99;99670;1339;60793;-67
2021/12/04 13:51:59;;;;;;;15.90;8.20;;;;;;;0.59;95.96;98453.58;99766;1337;74005;-67
2021/12/04 13:54:54;;;;;;;15.00;8.00;;;;;;;0.60;96.04;98453.14;99950;1341;68489;-67
2021/12/04 13:57:44;;;;;;;15.10;6.70;;;;;;;0.62;96.06;98454.45;99673;1340;73192;-67
2021/12/04 14:00:34;;;;;;;12.10;5.60;;;;;;;0.60;96.10;98459.29;99631;1340;59872;-67
2021/12/04 14:03:26;;;;;;;12.00;5.40;;;;;;;0.54;96.06;98458.80;99948;1342;60701;-67
2021/12/04 14:06:19;;;;;;;14.90;7.00;;;;;;;0.50;96.28;98458.85;99738;1337;73464;-67
2021/12/04 14:09:08;;;;;;;15.40;6.70;;;;;;;0.47;96.51;98458.02;99884;1342;67133;-67
2021/12/04 14:11:57;;;;;;;16.80;7.40;;;;;;;0.44;96.61;98458.70;99801;1339;71883;-67
2021/12/04 14:14:45;;;;;;;14.90;7.40;;;;;;;0.42;96.84;98463.86;101196;1337;60090;-68
2021/12/04 14:17:34;;;;;;;16.20;7.30;;;;;;;0.39;96.90;98464.09;99850;1337;59723;-67
2021/12/04 14:20:24;;;;;;;16.40;7.40;;;;;;;0.38;96.95;98458.03;99904;1339;73633;-67
2021/12/04 14:23:12;;;;;;;12.30;6.00;;;;;;;0.35;97.22;98457.88;99815;1340;68248;-67
2021/12/04 14:26:03;;;;;;;15.60;7.50;;;;;;;0.33;97.43;98461.66;99928;1340;71911;-67
2021/12/04 14:28:53;;;;;;;18.20;8.50;;;;;;;0.33;97.75;98466.02;99957;1340;59754;-68
2021/12/04 14:31:47;;;;;;;18.70;8.60;;;;;;;0.34;97.42;98472.91;100046;1336;59744;-69
2021/12/04 14:34:38;;;;;;;17.30;9.20;;;;;;;0.35;97.67;98477.42;100112;1340;72313;-68
2021/12/04 14:37:27;;;;;;;15.00;7.00;;;;;;;0.33;97.75;98482.24;100040;1336;67173;-68
2021/12/04 14:40:30;;;;;;;15.20;7.50;;;;;;;0.27;97.80;98484.84;99802;1339;73560;-67
2021/12/04 14:43:23;;;;;;;14.90;7.30;;;;;;;0.28;97.85;98491.94;100276;1342;59783;-69
2021/12/04 14:46:15;;;;;;;18.20;8.60;;;;;;;0.27;98.13;98492.55;100133;1337;61358;-67
2021/12/04 14:49:09;;;;;;;16.90;9.00;;;;;;;0.25;97.89;98489.85;100156;1342;72211;-68
2021/12/04 14:51:58;;;;;;;18.40;8.60;;;;;;;0.25;98.08;98494.08;99986;1337;68161;-69
2021/12/04 14:54:49;;;;;;;17.90;9.60;;;;;;;0.25;98.24;98494.55;100007;1342;71839;-67
2021/12/04 14:57:41;;;;;;;17.00;8.50;;;;;;;0.30;98.47;98499.31;99854;1340;59732;-67
2021/12/04 15:00:40;;;;;;;16.80;8.80;;;;;;;0.30;98.09;98502.98;100251;1340;59640;-68
2021/12/04 15:03:40;;;;;;;16.40;7.30;;;;;;;0.32;97.84;98504.98;100404;1335;73307;-68
2021/12/04 15:06:37;;;;;;;16.00;8.00;;;;;;;0.30;97.79;98507.86;99802;1339;68470;-67
2021/12/04 15:09:28;;;;;;;14.00;6.80;;;;;;;0.28;97.62;98511.15;99836;1337;73338;-68
2021/12/04 15:12:34;;;;;;;14.80;6.20;;;;;;;0.26;97.88;98514.41;100001;1339;59882;-69
2021/12/04 15:15:23;;;;;;;13.00;6.50;;;;;;;0.20;97.95;98519.81;99727;1343;60584;-69
2021/12/04 15:18:14;;;;;;;16.70;7.90;;;;;;;0.16;97.97;98518.98;99610;1339;71981;-68
2021/12/04 15:21:11;;;;;;;16.50;7.80;;;;;;;0.13;98.19;98522.64;99649;1339;68214;-68
2021/12/04 15:24:00;;;;;;;18.00;8.00;;;;;;;0.13;98.41;98523.04;100086;1340;73298;-68
2021/12/04 15:26:55;;;;;;;14.30;6.40;;;;;;;0.13;98.41;98527.40;100044;1340;59866;-68
2021/12/04 15:29:48;;;;;;;16.90;8.20;;;;;;;0.11;98.75;98532.23;100121;1342;60969;-68
2021/12/04 15:32:41;;;;;;;15.10;6.60;;;;;;;0.10;98.57;98538.92;99640;1342;73974;-68
2021/12/04 15:35:38;;;;;;;16.60;8.20;;;;;;;0.09;98.77;98540.19;99689;1339;68708;-67
2021/12/04 15:38:47;;;;;;;16.30;8.10;;;;;;;0.09;98.72;98537.41;100195;1337;73260;-68
2021/12/04 15:53:54;;;;;;;16.50;8.30;;;;;;;0.07;98.91;98537.54;99943;1337;72078;-68
2021/12/04 15:56:48;;;;;;;20.10;8.40;;;;;;;0.06;99.02;98537.79;99803;1336;59732;-68
2021/12/04 15:59:45;;;;;;;20.70;8.50;;;;;;;0.05;98.95;98539.71;100166;1336;59746;-69
2021/12/04 16:02:42;;;;;;;18.70;8.90;;;;;;;0.04;99.18;98542.25;100189;1341;72167;-67
2021/12/04 16:05:38;;;;;;;15.70;7.90;;;;;;;0.02;99.08;98544.09;100286;1336;66235;-67
2021/12/04 16:08:30;;;;;;;14.90;7.00;;;;;;;0.01;98.88;98556.04;99963;1337;71842;-67
2021/12/04 16:11:40;;;;;;;15.60;7.20;;;;;;;0.01;99.08;98556.67;100055;1337;60108;-70
2021/12/04 16:14:37;;;;;;;16.90;7.40;;;;;;;0.02;99.01;98554.76;99907;1337;59711;-69
2021/12/04 16:17:33;;;;;;;17.60;7.30;;;;;;;0.01;98.80;98558.44;99754;1337;72645;-68
2021/12/04 16:20:29;;;;;;;16.40;7.40;;;;;;;-0.01;98.95;98556.63;99771;1337;66705;-68
2021/12/04 16:23:18;;;;;;;20.70;9.10;;;;;;;-0.03;98.90;98559.17;100093;1340;72089;-67
2021/12/04 16:26:12;;;;;;;24.00;10.30;;;;;;;-0.02;99.19;98561.76;99767;1340;59781;-69
2021/12/04 16:29:12;;;;;;;18.60;8.50;;;;;;;-0.03;99.01;98567.39;99890;1340;59904;-67
2021/12/04 16:38:14;;;;;;;17.50;8.20;;;;;;;-0.01;98.99;98565.67;100038;1340;70544;-68
2021/12/04 16:41:08;;;;;;;15.20;7.40;;;;;;;-0.04;98.87;98564.84;99786;1339;60906;-67
2021/12/04 16:43:57;;;;;;;18.30;8.70;;;;;;;-0.04;99.01;98567.11;99655;1339;59641;-68
2021/12/04 16:46:47;;;;;;;17.20;7.20;;;;;;;-0.04;99.11;98565.70;99832;1337;72509;-68